CheckWX is a tool to help pilots better visualize weather data.  It is not intended as a substitute for an official pre-flight weather briefing.

21:45:25 UTC

KFDK METAR
Frederick Municipal Airport
Frederick, Maryland, USA
Current

55 mins ago

KFDK 052050Z 30013G20KT 10SM SCT060 07/M05 A3004
Observed
Dec-5 @ 20:50 UTC
Wind
  • 300° at 13 KTS
  • Gusting to 20 KTS
Visibility
10 SM
Flight Rules
VFR
Cloud Levels
  • Scattered at 6,000' AGL
Temperature
C / 45°F
Dewpoint
-5°C / 23°F
Humidity
42%
Altimeter
30.04" Hg
Pressure
1017.32 hPa
Previous

2 hours ago

KFDK 051947Z 31015G21KT 10SM SCT050 08/M05 A2999
Observed
Dec-5 @ 19:47 UTC
Wind
  • 310° at 15 KTS
  • Gusting to 21 KTS
Visibility
10 SM
Flight Rules
VFR
Cloud Levels
  • Scattered at 5,000' AGL
Temperature
C / 46°F
Dewpoint
-5°C / 23°F
Humidity
40%
Altimeter
29.99" Hg
Pressure
1015.62 hPa
Previous

3 hours ago

KFDK 051850Z 31015G20KT 10SM SCT050 08/M04 A2997
Observed
Dec-5 @ 18:50 UTC
Wind
  • 310° at 15 KTS
  • Gusting to 20 KTS
Visibility
10 SM
Flight Rules
VFR
Cloud Levels
  • Scattered at 5,000' AGL
Temperature
C / 46°F
Dewpoint
-4°C / 25°F
Humidity
43%
Altimeter
29.97" Hg
Pressure
1014.92 hPa